Abilene/Dyess AFB, Texas
Current Conditions -  °F | °C
As of 5:58 AM on Wednesday 28 Jan 2015 (Local Time) from KDYS Reporting Station
Clear Clear  
Wind Chill: 10°   Ceiling: Unl
Heat Index: 10°   Visibility: 10mi
Dew Point:   Wind: 3mph
Humidity: 68%   Direction: 200°SSW
Pressure: 30.07"   Gusts: NA
Location:  32.43°N, 99.83°W
Report Text: KDYS 281158Z AUTO 20003KT 10SM CLR 10/04 A3007 RMK AO2 SLP161 T00970040 10097 20056 55007 $
Loading
Personal Weather Stations






























Interactive Weather Map New forecast layout! Learn more

10-Day Weather Forecast

Advertisements
Track Severe Weather on mobile